Spencer, Iowa
Current Conditions -  °F | °C
As of 9:53 AM on Tuesday 21 Oct 2014 (Local Time) from KSPW Reporting Station
Clear Clear  
Wind Chill: 50°   Ceiling: Unl
Heat Index: 50°   Visibility: 10mi
Dew Point: 42°   Wind: 8mph
Humidity: 74%   Direction: 130°SE
Pressure: 30.14"   Gusts: NA
Location:  43.14°N, 95.14°W
Report Text: KSPW 211453Z AUTO 13007KT 10SM CLR 10/06 A3014 RMK AO2 SLP212 T01000056 51004 TSNO
Loading
Personal Weather Stations






























Interactive Weather Map
Tropical Storm Tracking
New forecast layout! Learn more

10-Day Weather Forecast

Advertisements
Track Severe Weather on mobile